Time;durP1;ratioP1;P1;durP2;ratioP2;P2;SDS_P1;SDS_P2;PMS_P1;PMS_P2;Temp;Humidity;BMP_temperature;BMP_pressure;BME280_temperature;BME280_humidity;BME280_pressure;Samples;Min_cycle;Max_cycle;Signal;HPM_P1;HPM_P2
2023/04/11 00:03:32;;;;;;;17.70;8.77;;;;;;;10.12;54.75;99920.31;7846127;31;37169;-82
2023/04/11 00:07:49;;;;;;;13.98;8.23;;;;;;;10.10;54.44;99917.00;7846093;31;40215;-82
2023/04/11 00:12:06;;;;;;;15.75;8.85;;;;;;;9.81;55.50;99907.63;7846029;31;39677;-83
2023/04/11 00:16:23;;;;;;;14.52;8.45;;;;;;;9.90;56.00;99900.56;7844834;31;37922;-83
2023/04/11 00:20:39;;;;;;;15.70;8.57;;;;;;;9.75;56.75;99888.53;7845933;31;36841;-83
2023/04/11 00:24:55;;;;;;;15.25;8.05;;;;;;;9.79;56.74;99883.38;7845773;31;39398;-82
2023/04/11 00:29:12;;;;;;;16.48;8.98;;;;;;;9.47;57.11;99891.59;7862551;31;40948;-82
2023/04/11 00:33:31;;;;;;;12.93;7.72;;;;;;;9.58;55.93;99888.69;7872547;31;39315;-83
2023/04/11 00:37:48;;;;;;;15.38;8.82;;;;;;;9.66;55.17;99879.22;7873265;31;36991;-83
2023/04/11 00:42:06;;;;;;;16.20;8.40;;;;;;;9.33;56.55;99881.19;7873044;31;39258;-83
2023/04/11 00:46:23;;;;;;;14.52;8.45;;;;;;;9.48;55.56;99868.75;7871854;31;39437;-84
2023/04/11 00:50:41;;;;;;;18.60;9.40;;;;;;;9.40;56.31;99870.91;7872832;31;37747;-83
2023/04/11 00:54:57;;;;;;;16.92;9.45;;;;;;;9.48;56.48;99864.13;7870429;31;36664;-82
2023/04/11 00:59:14;;;;;;;16.60;8.77;;;;;;;9.44;56.46;99859.50;7872689;31;39315;-83
2023/04/11 01:03:30;;;;;;;16.17;9.48;;;;;;;9.34;56.70;99857.53;7872501;31;40736;-84
2023/04/11 01:07:49;;;;;;;17.02;8.60;;;;;;;9.43;56.86;99850.50;7872353;31;37717;-81
2023/04/11 01:12:06;;;;;;;23.08;10.13;;;;;;;9.49;56.00;99846.72;7872243;31;37823;-83
2023/04/11 01:16:22;;;;;;;16.42;8.82;;;;;;;9.50;56.03;99844.81;7871120;31;39165;-83
2023/04/11 01:20:39;;;;;;;15.40;8.52;;;;;;;9.39;56.03;99844.75;7872043;31;40187;-83
2023/04/11 01:24:55;;;;;;;18.48;9.55;;;;;;;9.55;55.80;99842.97;7871623;31;38557;-83
2023/04/11 01:29:11;;;;;;;16.67;9.10;;;;;;;9.40;56.67;99838.25;7872064;31;36694;-83
2023/04/11 01:33:27;;;;;;;18.10;9.20;;;;;;;9.20;57.19;99838.12;7871913;31;39193;-82
2023/04/11 01:37:43;;;;;;;20.08;8.98;;;;;;;9.40;57.21;99834.72;7871870;31;40089;-81
2023/04/11 01:42:01;;;;;;;16.62;9.13;;;;;;;9.12;57.65;99833.97;7871474;31;38043;-83
2023/04/11 01:46:18;;;;;;;16.40;9.55;;;;;;;9.29;56.83;99833.81;7874014;31;36828;-82
2023/04/11 01:50:34;;;;;;;15.23;9.40;;;;;;;8.82;58.55;99840.81;7875716;31;39933;-82
2023/04/11 01:54:50;;;;;;;16.27;9.25;;;;;;;8.71;58.65;99838.25;7862694;31;39967;-83
2023/04/11 01:59:07;;;;;;;16.58;8.90;;;;;;;8.82;57.88;99840.00;7847886;31;37872;-83
2023/04/11 02:03:23;;;;;;;16.75;10.07;;;;;;;8.79;57.75;99840.50;7837915;31;36796;-83
2023/04/11 02:07:40;;;;;;;17.83;9.02;;;;;;;8.77;58.16;99842.66;7820187;32;40137;-83
2023/04/11 02:11:56;;;;;;;15.55;8.77;;;;;;;8.72;57.94;99829.03;7820007;32;39925;-83
2023/04/11 02:16:16;;;;;;;15.93;9.00;;;;;;;8.60;58.00;99823.75;7819811;32;37848;-83
2023/04/11 02:20:33;;;;;;;16.62;9.32;;;;;;;8.59;57.58;99820.22;7820050;32;35920;-82
2023/04/11 02:24:50;;;;;;;15.95;9.27;;;;;;;8.56;57.86;99825.37;7819947;32;39454;-83
2023/04/11 02:29:06;;;;;;;14.65;8.48;;;;;;;8.63;57.24;99815.09;7818599;32;40791;-84
2023/04/11 02:33:23;;;;;;;15.55;9.75;;;;;;;8.57;57.67;99811.53;7824560;31;38687;-78
2023/04/11 02:37:39;;;;;;;18.17;9.43;;;;;;;8.45;57.61;99803.53;7847390;31;36998;-82
2023/04/11 02:41:56;;;;;;;19.62;9.60;;;;;;;8.28;58.20;99795.44;7847410;31;39304;-83
2023/04/11 02:46:12;;;;;;;15.30;9.52;;;;;;;8.50;58.06;99794.59;7847210;31;39900;-85
2023/04/11 02:50:28;;;;;;;16.00;9.15;;;;;;;8.46;58.20;99790.75;7847217;31;38556;-82
2023/04/11 02:54:45;;;;;;;16.58;8.98;;;;;;;8.53;58.34;99796.78;7845683;31;37064;-83
2023/04/11 02:59:01;;;;;;;16.90;9.63;;;;;;;8.59;57.99;99803.94;7847145;31;39398;-82
2023/04/11 03:03:17;;;;;;;16.50;9.70;;;;;;;8.50;57.94;99810.09;7843071;31;40587;-83
2023/04/11 03:07:37;;;;;;;16.08;9.63;;;;;;;8.32;58.26;99812.06;7819455;32;37882;-83
2023/04/11 03:11:53;;;;;;;14.93;8.52;;;;;;;8.47;57.64;99806.00;7819346;32;37032;-83
2023/04/11 03:16:12;;;;;;;19.02;9.70;;;;;;;8.63;56.58;99787.91;7819552;32;39068;-83
2023/04/11 03:20:28;;;;;;;16.35;8.88;;;;;;;8.37;57.85;99800.44;7819311;32;40846;-81
2023/04/11 03:24:45;;;;;;;15.30;8.55;;;;;;;8.52;58.61;99813.34;7819102;32;38537;-70
2023/04/11 03:29:02;;;;;;;16.95;9.73;;;;;;;8.31;60.50;99804.16;7819214;32;37088;-82
2023/04/11 03:33:18;;;;;;;16.85;8.73;;;;;;;8.32;59.19;99798.47;7844364;31;40091;-82
2023/04/11 03:37:35;;;;;;;18.45;9.82;;;;;;;8.12;59.27;99799.06;7846590;31;40615;-82
2023/04/11 03:41:51;;;;;;;14.23;8.80;;;;;;;8.00;58.83;99795.69;7839213;31;38622;-84
2023/04/11 03:46:07;;;;;;;19.08;10.30;;;;;;;8.11;57.88;99792.03;7818928;32;37590;-82
2023/04/11 03:50:24;;;;;;;15.90;9.77;;;;;;;7.93;58.83;99790.44;7817722;32;39331;-82
2023/04/11 03:54:40;;;;;;;16.00;9.35;;;;;;;7.89;59.14;99790.13;7817593;32;39847;-83
2023/04/11 03:58:56;;;;;;;14.07;8.50;;;;;;;7.74;59.49;99787.25;7818678;32;38588;-83
2023/04/11 04:03:13;;;;;;;14.80;8.35;;;;;;;7.83;58.74;99785.75;7818694;32;37071;-83
2023/04/11 04:07:30;;;;;;;15.50;8.55;;;;;;;7.92;58.52;99777.97;7817572;32;40010;-82
2023/04/11 04:11:47;;;;;;;13.77;8.18;;;;;;;7.93;59.03;99765.22;7823548;31;41217;-82
2023/04/11 04:16:03;;;;;;;14.30;8.50;;;;;;;7.83;59.10;99774.88;7845985;31;37815;-82
2023/04/11 04:20:19;;;;;;;15.40;9.10;;;;;;;7.90;58.69;99772.78;7845965;31;37630;-82
2023/04/11 04:24:40;;;;;;;17.20;9.38;;;;;;;7.88;58.79;99777.66;7838974;31;39315;-82
2023/04/11 04:29:03;;;;;;;15.80;8.65;;;;;;;7.74;59.23;99791.88;7818205;32;40013;-83
2023/04/11 04:33:20;;;;;;;16.27;8.55;;;;;;;7.74;58.82;99787.25;7804800;32;37555;-83
2023/04/11 04:37:38;;;;;;;15.35;9.00;;;;;;;8.08;57.75;99777.03;7817984;32;37250;-81
2023/04/11 04:42:00;;;;;;;18.50;8.65;;;;;;;7.89;58.39;99776.56;7828311;31;39216;-82
2023/04/11 04:46:16;;;;;;;15.32;7.82;;;;;;;7.97;58.83;99769.03;7845308;31;39951;-81
2023/04/11 04:50:32;;;;;;;17.87;9.07;;;;;;;8.03;59.10;99770.75;7845124;31;37828;-81
2023/04/11 04:54:48;;;;;;;17.58;9.18;;;;;;;8.16;58.92;99762.22;7845164;31;37841;-81
2023/04/11 04:59:05;;;;;;;18.80;8.80;;;;;;;8.08;60.45;99762.66;7844609;31;40126;-82
2023/04/11 05:03:21;;;;;;;16.02;9.63;;;;;;;8.23;60.21;99762.81;7843127;31;40759;-81
2023/04/11 05:07:37;;;;;;;16.80;9.15;;;;;;;8.44;59.68;99758.41;7831275;31;38352;-85
2023/04/11 05:11:55;;;;;;;17.02;9.00;;;;;;;8.38;60.22;99759.44;7823173;32;37338;-86
2023/04/11 05:16:11;;;;;;;18.42;9.52;;;;;;;8.48;60.23;99747.84;7818165;32;38934;-86
2023/04/11 05:20:28;;;;;;;16.30;8.85;;;;;;;8.43;60.71;99739.66;7830711;31;39715;-85
2023/04/11 05:24:44;;;;;;;17.12;9.05;;;;;;;8.64;60.69;99725.16;7848839;31;37810;-84
2023/04/11 05:29:00;;;;;;;16.50;8.52;;;;;;;8.91;60.70;99729.69;7848608;31;37711;-84
2023/04/11 05:33:17;;;;;;;24.77;13.68;;;;;;;9.11;60.73;99736.34;7848361;31;39925;-86
2023/04/11 05:37:33;;;;;;;20.00;10.60;;;;;;;8.96;61.02;99740.59;7848376;31;39663;-86
2023/04/11 05:41:50;;;;;;;16.27;9.30;;;;;;;8.96;60.97;99732.44;7847187;31;37721;-77
2023/04/11 05:46:07;;;;;;;18.60;9.00;;;;;;;9.12;61.34;99713.47;7846466;31;36912;-77
2023/04/11 05:50:25;;;;;;;13.73;8.57;;;;;;;9.34;60.33;99721.50;7848015;31;39817;-80
2023/04/11 05:54:42;;;;;;;19.20;9.32;;;;;;;9.56;60.60;99707.69;7833885;31;40812;-78
2023/04/11 05:58:58;;;;;;;19.60;9.75;;;;;;;9.73;61.68;99716.47;7847711;31;37837;-83
2023/04/11 06:03:14;;;;;;;15.80;9.10;;;;;;;9.41;59.97;99716.63;7831213;31;37728;-85
2023/04/11 06:07:32;;;;;;;15.38;8.98;;;;;;;9.61;58.71;99698.72;7820313;32;39540;-83
2023/04/11 06:11:48;;;;;;;18.10;9.48;;;;;;;9.98;57.51;99692.28;7819653;32;40106;-84
2023/04/11 06:16:06;;;;;;;17.67;9.55;;;;;;;9.59;58.88;99693.56;7842765;31;37931;-84
2023/04/11 06:20:23;;;;;;;19.98;9.88;;;;;;;9.88;58.37;99688.47;7840181;31;37651;-82
2023/04/11 06:24:40;;;;;;;18.83;10.32;;;;;;;10.07;58.10;99686.03;7844306;31;39766;-83
2023/04/11 06:28:56;;;;;;;23.40;9.77;;;;;;;10.19;58.46;99680.31;7841475;31;39869;-82
2023/04/11 06:33:12;;;;;;;15.88;8.75;;;;;;;10.43;57.91;99683.31;7837692;31;37495;-83
2023/04/11 06:37:28;;;;;;;19.42;10.60;;;;;;;10.82;57.39;99701.03;7827399;31;36022;-84
2023/04/11 06:41:46;;;;;;;15.98;8.75;;;;;;;10.99;58.62;99695.25;7824562;31;39405;-84
2023/04/11 06:46:02;;;;;;;12.40;7.85;;;;;;;10.69;57.99;99703.22;7830999;31;39985;-86
2023/04/11 06:50:19;;;;;;;18.67;10.70;;;;;;;11.19;56.86;99681.56;7834642;31;38568;-83
2023/04/11 06:54:35;;;;;;;20.00;12.15;;;;;;;11.62;56.07;99681.06;7830071;31;37072;-83
2023/04/11 06:58:53;;;;;;;17.40;9.38;;;;;;;12.02;55.63;99676.50;7824027;31;38671;-82
2023/04/11 07:03:10;;;;;;;16.20;9.98;;;;;;;11.52;55.05;99673.78;7834345;31;39753;-82
2023/04/11 07:07:27;;;;;;;17.90;10.45;;;;;;;11.60;55.34;99656.78;7843664;31;39042;-83
2023/04/11 07:11:43;;;;;;;19.90;10.65;;;;;;;11.99;54.78;99655.22;7826914;31;36813;-81
2023/04/11 07:16:00;;;;;;;24.02;10.75;;;;;;;12.50;54.71;99653.97;7843532;31;40023;-83
2023/04/11 07:20:16;;;;;;;21.40;10.73;;;;;;;12.83;53.92;99649.56;7845412;31;39849;-83
2023/04/11 07:24:32;;;;;;;23.87;12.63;;;;;;;12.66;53.97;99652.72;7833040;31;38359;-83
2023/04/11 07:28:50;;;;;;;19.25;10.88;;;;;;;13.33;54.14;99641.03;7842824;31;37936;-83
2023/04/11 07:33:06;;;;;;;24.08;12.20;;;;;;;13.68;52.87;99636.19;7817314;32;39928;-81
2023/04/11 07:37:22;;;;;;;19.75;11.32;;;;;;;14.03;51.71;99650.47;7837776;31;40743;-85
2023/04/11 07:41:38;;;;;;;22.15;11.48;;;;;;;13.95;51.65;99651.13;7828499;31;38720;-83
2023/04/11 07:45:56;;;;;;;21.60;11.77;;;;;;;13.09;51.97;99661.03;7839210;31;37900;-83
2023/04/11 07:50:12;;;;;;;20.23;11.38;;;;;;;13.08;52.54;99650.34;7844304;31;39290;-83
2023/04/11 07:54:29;;;;;;;24.02;11.77;;;;;;;13.43;52.09;99640.91;7846873;31;40972;-84
2023/04/11 07:58:45;;;;;;;19.40;11.38;;;;;;;13.80;52.23;99633.00;7847203;31;37889;-82
2023/04/11 08:03:05;;;;;;;20.20;12.05;;;;;;;14.04;53.11;99627.44;7846459;31;37186;-82
2023/04/11 08:07:22;;;;;;;18.42;11.77;;;;;;;14.49;50.96;99618.69;7840944;31;181955;-82
2023/04/11 08:11:38;;;;;;;23.67;12.80;;;;;;;14.78;49.51;99607.47;7849403;31;39876;-87
2023/04/11 08:15:56;;;;;;;18.75;11.18;;;;;;;15.16;49.10;99597.13;7849130;31;36931;-83
2023/04/11 08:20:12;;;;;;;22.45;11.38;;;;;;;15.19;49.06;99587.44;7850075;31;37393;-85
2023/04/11 08:24:29;;;;;;;20.92;11.48;;;;;;;15.30;48.59;99586.12;7852198;31;39215;-84
2023/04/11 08:28:45;;;;;;;19.85;11.93;;;;;;;15.36;47.65;99579.38;7825987;31;41012;-85
2023/04/11 08:33:01;;;;;;;17.23;9.48;;;;;;;15.20;47.96;99567.09;7818368;32;38022;-85
2023/04/11 08:37:18;;;;;;;15.27;9.55;;;;;;;15.58;45.05;99547.56;7819444;32;37375;-81
2023/04/11 08:41:34;;;;;;;18.92;11.68;;;;;;;15.37;45.29;99542.56;7818021;32;39419;-82
2023/04/11 08:45:50;;;;;;;14.45;9.10;;;;;;;15.96;44.60;99536.22;7835054;31;39959;-84
2023/04/11 08:50:07;;;;;;;15.35;8.43;;;;;;;16.04;43.85;99532.72;7846832;31;38895;-85
2023/04/11 08:54:23;;;;;;;12.95;7.18;;;;;;;15.87;43.05;99521.63;7821426;31;38628;-85
2023/04/11 08:58:40;;;;;;;13.50;5.70;;;;;;;16.38;43.02;99509.25;7822690;32;39402;-84
2023/04/11 09:03:04;;;;;;;8.05;4.85;;;;;;;16.90;40.29;99514.13;7822198;31;39825;-86
2023/04/11 09:07:21;;;;;;;13.85;7.93;;;;;;;16.96;38.56;99507.38;7821554;32;37950;-86
2023/04/11 09:11:53;;;;;;;15.70;8.57;;;;;;;16.76;40.48;99503.22;7820883;32;37750;-85
2023/04/11 09:16:11;;;;;;;15.45;8.40;;;;;;;16.37;41.70;99502.16;7821601;32;40023;-86
2023/04/11 09:20:29;;;;;;;12.13;7.03;;;;;;;16.60;42.25;99493.81;7821469;32;40846;-84
2023/04/11 09:25:00;;;;;;;13.45;6.87;;;;;;;16.37;41.82;99490.31;7821474;32;38007;-85
2023/04/11 09:29:42;;;;;;;13.15;7.07;;;;;;;16.95;40.70;99477.38;7820341;32;37956;-83
2023/04/11 09:33:59;;;;;;;11.32;6.00;;;;;;;16.79;40.11;99490.78;7820325;32;40038;-87
2023/04/11 09:38:36;;;;;;;9.45;4.60;;;;;;;16.46;40.01;99478.22;7819895;32;40690;-85
2023/04/11 09:43:00;;;;;;;11.02;4.95;;;;;;;16.84;39.38;99472.19;7820884;32;37976;-86
2023/04/11 09:47:16;;;;;;;9.27;4.87;;;;;;;17.27;38.59;99465.91;7821158;32;37358;-86
2023/04/11 09:51:34;;;;;;;7.95;4.62;;;;;;;17.42;36.82;99452.78;7821153;32;39547;-85
2023/04/11 09:55:52;;;;;;;11.65;5.47;;;;;;;17.29;36.43;99453.75;7819803;32;39902;-86
2023/04/11 10:00:18;;;;;;;9.45;4.65;;;;;;;17.70;36.65;99452.41;7820786;32;37910;-85
2023/04/11 10:04:35;;;;;;;12.13;5.28;;;;;;;18.19;35.25;99433.62;7819948;32;37902;-85
2023/04/11 10:08:51;;;;;;;9.93;6.05;;;;;;;18.33;35.26;99428.69;7820666;32;39238;-85
2023/04/11 10:13:32;;;;;;;11.90;6.47;;;;;;;18.18;36.33;99429.25;7819551;32;39830;-85
2023/04/11 10:18:21;;;;;;;11.90;6.50;;;;;;;19.14;37.64;99412.91;7820339;32;38781;-87
2023/04/11 10:22:49;;;;;;;11.98;6.43;;;;;;;20.05;35.65;99397.50;7794324;31;36878;-85
2023/04/11 10:27:06;;;;;;;14.93;6.50;;;;;;;20.35;35.06;99388.94;7820269;32;39454;-86
2023/04/11 10:31:22;;;;;;;13.75;6.45;;;;;;;20.81;33.50;99376.53;7819129;32;40828;-86
2023/04/11 10:36:08;;;;;;;13.98;6.47;;;;;;;20.24;33.43;99377.53;7819039;32;37229;-85
2023/04/11 10:40:25;;;;;;;12.20;6.32;;;;;;;20.47;32.59;99375.09;7820218;32;36917;-85
2023/04/11 10:44:41;;;;;;;11.38;5.85;;;;;;;20.18;31.16;99373.38;7819906;32;39347;-85
2023/04/11 10:49:02;;;;;;;11.50;6.43;;;;;;;20.34;30.18;99362.44;7819980;32;40850;-85
2023/04/11 10:53:46;;;;;;;11.67;6.23;;;;;;;20.61;31.26;99353.37;7820018;32;38024;-84
2023/04/11 10:58:10;;;;;;;9.83;6.10;;;;;;;20.96;29.70;99358.38;7818237;31;37225;-84
2023/04/11 11:02:36;;;;;;;11.07;5.78;;;;;;;20.58;29.23;99343.00;7819868;32;40271;-86
2023/04/11 11:06:56;;;;;;;9.57;5.53;;;;;;;19.81;29.22;99346.50;7819805;32;40139;-85
2023/04/11 11:11:18;;;;;;;11.10;5.87;;;;;;;20.39;29.97;99334.50;7819426;32;37908;-85
2023/04/11 11:15:37;;;;;;;11.10;5.65;;;;;;;21.49;29.07;99330.56;7819377;32;36988;-87
2023/04/11 11:19:54;;;;;;;12.48;6.10;;;;;;;20.98;29.35;99317.28;7818642;32;39254;-85
2023/04/11 11:24:10;;;;;;;10.98;6.65;;;;;;;20.77;29.81;99323.00;7819507;32;40732;-84
2023/04/11 11:28:26;;;;;;;12.43;6.95;;;;;;;21.10;28.87;99312.84;7819286;32;37924;-84
2023/04/11 11:32:44;;;;;;;13.35;7.10;;;;;;;21.28;30.42;99302.22;7819599;32;36556;-86
2023/04/11 11:37:05;;;;;;;11.68;6.87;;;;;;;21.79;27.73;99301.56;7819430;32;39498;-86
2023/04/11 11:41:21;;;;;;;11.12;6.85;;;;;;;20.74;29.41;99307.09;7819305;32;39651;-85
2023/04/11 11:45:38;;;;;;;11.52;6.53;;;;;;;20.30;27.80;99301.44;7819220;32;37954;-85
2023/04/11 11:49:54;;;;;;;14.50;7.40;;;;;;;20.75;28.16;99292.09;7819406;32;37523;-86
2023/04/11 11:54:11;;;;;;;14.32;7.80;;;;;;;21.12;29.58;99299.44;7819325;32;39132;-84
2023/04/11 11:58:40;;;;;;;14.43;7.82;;;;;;;21.03;27.93;99301.56;7819336;32;39527;-85
2023/04/11 12:02:59;;;;;;;13.77;8.13;;;;;;;20.13;30.08;99310.78;7819241;32;37946;-85
2023/04/11 12:07:21;;;;;;;14.82;7.50;;;;;;;19.31;32.01;99303.34;7819277;32;37643;-85
2023/04/11 12:11:41;;;;;;;20.98;8.82;;;;;;;20.12;32.67;99305.59;7820659;31;39956;-84
2023/04/11 12:16:00;;;;;;;16.58;8.95;;;;;;;20.31;32.72;99310.53;7823219;31;40572;-84
2023/04/11 12:20:26;;;;;;;16.83;9.00;;;;;;;20.90;30.99;99307.13;7845512;31;37959;-84
2023/04/11 12:24:42;;;;;;;19.17;9.18;;;;;;;20.72;31.34;99303.06;7847823;31;37126;-85
2023/04/11 12:29:00;;;;;;;15.13;7.90;;;;;;;19.36;33.14;99308.66;7823799;31;40349;-84
2023/04/11 12:33:17;;;;;;;15.60;9.07;;;;;;;19.36;33.85;99314.16;7818748;31;39950;-81
2023/04/11 12:37:33;;;;;;;13.32;7.32;;;;;;;19.34;34.28;99305.41;7818029;32;37866;-76
2023/04/11 12:41:50;;;;;;;13.48;7.65;;;;;;;19.26;32.11;99293.28;7823448;31;37111;-83
2023/04/11 12:46:06;;;;;;;12.25;6.60;;;;;;;19.75;31.33;99292.59;7840222;31;39284;-83
2023/04/11 12:50:23;;;;;;;14.05;6.45;;;;;;;20.00;30.03;99290.63;7824685;32;39709;-76
2023/04/11 12:54:39;;;;;;;11.65;6.53;;;;;;;19.99;29.23;99290.97;7830251;32;37935;-77
2023/04/11 12:58:56;;;;;;;10.02;6.45;;;;;;;19.68;28.85;99273.78;7823810;32;37317;-83
2023/04/11 13:03:12;;;;;;;10.32;5.78;;;;;;;19.41;28.92;99266.97;7820296;32;40156;-78
2023/04/11 13:07:29;;;;;;;8.77;5.07;;;;;;;19.29;29.11;99261.44;7821460;32;40217;-85
2023/04/11 13:11:45;;;;;;;10.40;5.35;;;;;;;19.44;28.72;99249.69;7820798;32;37848;-83
2023/04/11 13:16:01;;;;;;;9.48;5.32;;;;;;;18.56;29.09;99255.31;7827607;31;38184;-86
2023/04/11 13:20:17;;;;;;;10.80;5.30;;;;;;;18.44;30.26;99249.72;7839330;31;39291;-83
2023/04/11 13:24:34;;;;;;;12.65;5.55;;;;;;;18.37;29.90;99250.28;7837816;31;39886;-86
2023/04/11 13:28:50;;;;;;;10.25;5.43;;;;;;;18.19;29.87;99243.25;7839241;31;38892;-82
2023/04/11 13:33:06;;;;;;;10.23;5.32;;;;;;;18.55;29.65;99233.56;7836760;31;37363;-88
2023/04/11 13:37:22;;;;;;;8.20;4.32;;;;;;;17.97;30.72;99242.47;7844469;31;39440;-75
2023/04/11 13:41:41;;;;;;;9.77;4.72;;;;;;;17.33;31.24;99248.09;7847787;31;38967;-74
2023/04/11 13:45:57;;;;;;;11.60;4.93;;;;;;;16.77;33.54;99250.81;7849515;31;38562;-85
2023/04/11 13:50:13;;;;;;;10.23;4.93;;;;;;;16.21;34.03;99250.66;7849075;31;37351;-84
2023/04/11 13:54:29;;;;;;;9.38;5.00;;;;;;;16.48;32.85;99255.06;7848388;31;39525;-83
2023/04/11 13:58:46;;;;;;;10.13;5.53;;;;;;;15.82;36.58;99257.91;7847868;31;39863;-83
2023/04/11 14:03:02;;;;;;;10.70;5.65;;;;;;;16.19;38.06;99242.75;7847812;31;37862;-80
2023/04/11 14:07:20;;;;;;;11.32;6.47;;;;;;;16.40;36.93;99262.19;7847845;31;36178;-82
2023/04/11 14:11:36;;;;;;;10.73;6.25;;;;;;;16.54;36.73;99259.28;7839125;31;39496;-83
2023/04/11 14:15:53;;;;;;;11.77;6.40;;;;;;;17.04;36.55;99264.25;7819842;32;40734;-83
2023/04/11 14:20:26;;;;;;;9.20;4.57;;;;;;;17.00;37.06;99271.53;7820007;32;38641;-83
2023/04/11 14:24:42;;;;;;;7.35;3.95;;;;;;;16.70;38.12;99282.41;7818871;32;37164;-83
2023/04/11 14:28:58;;;;;;;5.78;2.67;;;;;;;16.46;40.59;99279.34;7819905;32;39459;-83
2023/04/11 14:33:15;;;;;;;6.37;3.17;;;;;;;16.49;40.59;99301.50;7819929;32;39880;-83
2023/04/11 14:37:31;;;;;;;4.97;2.85;;;;;;;16.39;41.73;99290.81;7820215;31;37975;-84
2023/04/11 14:41:47;;;;;;;6.12;3.10;;;;;;;16.20;41.81;99296.62;7844439;31;37276;-83
2023/04/11 14:46:04;;;;;;;6.30;3.12;;;;;;;15.72;42.95;99309.22;7836845;31;38802;-83
2023/04/11 14:50:22;;;;;;;7.90;3.75;;;;;;;15.39;44.28;99320.56;7835692;31;40293;-83
2023/04/11 14:54:38;;;;;;;5.70;3.42;;;;;;;15.11;46.19;99325.44;7837408;31;38683;-82
2023/04/11 14:58:57;;;;;;;5.87;3.45;;;;;;;15.11;47.47;99324.59;7838764;31;36805;-83
2023/04/11 15:03:13;;;;;;;9.45;4.55;;;;;;;14.55;49.23;99338.50;7833761;31;39398;-83
2023/04/11 15:07:30;;;;;;;10.80;5.70;;;;;;;14.09;52.84;99354.06;7834127;31;39742;-83
2023/04/11 15:11:47;;;;;;;10.77;5.87;;;;;;;13.21;57.22;99373.19;7831168;31;37366;-83
2023/04/11 15:16:04;;;;;;;11.75;5.85;;;;;;;13.72;58.48;99374.22;7836288;31;37181;-83
2023/04/11 15:20:20;;;;;;;18.75;8.52;;;;;;;13.60;59.78;99382.94;7836092;31;37202;-82
2023/04/11 15:24:39;;;;;;;14.55;8.40;;;;;;;12.99;63.18;99378.47;7842382;31;42094;-79
2023/04/11 15:28:55;;;;;;;12.65;7.70;;;;;;;13.01;64.02;99382.53;7826810;31;38048;-82
2023/04/11 15:33:11;;;;;;;12.43;7.45;;;;;;;12.55;64.54;99375.81;7819304;32;36893;-81
2023/04/11 15:37:27;;;;;;;15.95;8.73;;;;;;;12.61;64.67;99362.91;7819183;32;39085;-81
2023/04/11 15:41:44;;;;;;;14.73;8.27;;;;;;;12.89;64.08;99377.53;7841860;31;39877;-81
2023/04/11 15:46:05;;;;;;;12.32;6.70;;;;;;;12.63;65.07;99371.62;7832659;31;37819;-81
2023/04/11 15:50:21;;;;;;;13.50;7.55;;;;;;;12.58;65.22;99366.22;7836830;31;36671;-80
2023/04/11 15:54:39;;;;;;;12.85;7.37;;;;;;;12.47;65.59;99367.47;7836852;31;39097;-81
2023/04/11 15:58:58;;;;;;;10.23;5.68;;;;;;;11.93;67.56;99359.41;7837815;31;40820;-82
2023/04/11 16:03:15;;;;;;;9.90;5.20;;;;;;;12.01;68.14;99353.28;7834069;31;38637;-81
2023/04/11 16:07:33;;;;;;;11.25;4.97;;;;;;;12.05;67.63;99334.41;7828556;31;38003;-82
2023/04/11 16:11:49;;;;;;;9.70;4.85;;;;;;;12.17;67.74;99337.50;7829866;31;39373;-82
2023/04/11 16:16:08;;;;;;;10.45;4.75;;;;;;;12.00;67.18;99329.84;7824352;31;39800;-81
2023/04/11 16:20:24;;;;;;;10.95;5.57;;;;;;;11.97;67.93;99314.03;7844402;31;37125;-81
2023/04/11 16:24:40;;;;;;;9.80;5.07;;;;;;;12.26;66.90;99307.59;7845755;31;37175;-81
2023/04/11 16:28:56;;;;;;;11.00;6.30;;;;;;;12.31;67.04;99310.28;7845808;31;40049;-81
2023/04/11 16:33:13;;;;;;;13.30;6.95;;;;;;;12.17;67.52;99307.44;7845230;31;40085;-82
2023/04/11 16:37:29;;;;;;;12.00;6.78;;;;;;;12.61;66.00;99296.44;7845360;31;38624;-81
2023/04/11 16:41:46;;;;;;;10.25;5.72;;;;;;;12.37;66.69;99291.91;7843829;31;36912;-81
2023/04/11 16:46:02;;;;;;;11.43;6.05;;;;;;;12.08;67.28;99289.31;7845120;31;40144;-81
2023/04/11 16:50:18;;;;;;;11.50;6.00;;;;;;;11.90;68.10;99269.84;7839139;31;39962;-81
2023/04/11 16:54:35;;;;;;;10.77;5.97;;;;;;;12.37;66.42;99268.09;7817113;32;38602;-81
2023/04/11 16:58:51;;;;;;;13.13;7.37;;;;;;;12.28;66.80;99275.34;7817729;32;37091;-81
2023/04/11 17:03:07;;;;;;;17.95;9.82;;;;;;;12.05;67.30;99273.50;7816689;32;39043;-82
2023/04/11 17:07:24;;;;;;;11.68;6.80;;;;;;;12.36;66.78;99271.94;7817076;32;40782;-81
2023/04/11 17:11:40;;;;;;;12.20;7.18;;;;;;;11.81;68.33;99268.84;7816349;31;38583;-81
2023/04/11 17:15:56;;;;;;;13.70;7.43;;;;;;;11.78;69.33;99269.41;7824336;31;36843;-81
2023/04/11 17:20:13;;;;;;;12.07;6.95;;;;;;;12.17;68.19;99271.13;7848382;31;39412;-81
2023/04/11 17:24:29;;;;;;;19.75;10.15;;;;;;;12.32;67.38;99281.84;7847746;31;40597;-81
2023/04/11 17:28:46;;;;;;;20.10;10.20;;;;;;;12.39;66.93;99265.06;7847991;31;37840;-80
2023/04/11 17:33:02;;;;;;;19.12;11.35;;;;;;;12.10;68.30;99270.69;7836025;31;37450;-81
2023/04/11 17:37:19;;;;;;;16.87;8.30;;;;;;;12.42;66.85;99255.44;7820027;32;38960;-80
2023/04/11 17:41:35;;;;;;;13.77;8.13;;;;;;;12.51;66.48;99264.63;7819425;31;40171;-82
2023/04/11 17:45:51;;;;;;;12.50;7.07;;;;;;;12.40;66.67;99270.25;7819335;32;38944;-81
2023/04/11 17:50:09;;;;;;;20.33;10.18;;;;;;;12.16;67.41;99292.19;7818496;32;37714;-82
2023/04/11 17:54:25;;;;;;;19.45;11.00;;;;;;;12.27;67.81;99286.56;7817727;32;39291;-83
2023/04/11 17:58:43;;;;;;;19.23;11.48;;;;;;;12.50;66.88;99280.19;7819746;32;40628;-81
2023/04/11 18:03:01;;;;;;;18.40;10.95;;;;;;;12.45;67.08;99287.66;7819299;32;37775;-81
2023/04/11 18:07:23;;;;;;;18.02;10.35;;;;;;;12.67;66.00;99290.59;7819140;32;38336;-73
2023/04/11 18:11:40;;;;;;;19.65;10.90;;;;;;;12.32;66.44;99287.31;7818708;32;39398;-83
2023/04/11 18:15:57;;;;;;;16.60;10.15;;;;;;;12.25;66.72;99284.13;7819874;32;40840;-82
2023/04/11 18:20:14;;;;;;;17.83;10.43;;;;;;;12.35;65.86;99288.66;7836170;31;37697;-82
2023/04/11 18:24:30;;;;;;;22.08;12.10;;;;;;;12.15;66.07;99296.00;7841203;31;38061;-82
2023/04/11 18:28:46;;;;;;;23.92;12.98;;;;;;;12.34;65.39;99314.34;7839553;31;40116;-82
2023/04/11 18:33:03;;;;;;;20.50;10.95;;;;;;;12.02;66.23;99319.41;7824863;31;40153;-81
2023/04/11 18:37:19;;;;;;;20.33;11.60;;;;;;;11.82;66.92;99319.62;7819845;32;38017;-82
2023/04/11 18:41:38;;;;;;;19.42;11.77;;;;;;;11.65;67.36;99315.44;7827915;31;37303;-82
2023/04/11 18:45:54;;;;;;;21.35;11.77;;;;;;;11.71;66.85;99318.13;7846978;31;39364;-81
2023/04/11 18:50:12;;;;;;;21.02;11.05;;;;;;;11.79;66.42;99318.28;7846954;31;40833;-82
2023/04/11 18:54:28;;;;;;;19.80;10.00;;;;;;;11.74;66.62;99320.28;7826627;31;38008;-81
2023/04/11 18:58:44;;;;;;;17.50;10.80;;;;;;;11.89;65.53;99317.34;7841221;31;38161;-84
2023/04/11 19:03:05;;;;;;;16.90;9.88;;;;;;;11.94;64.76;99309.13;7842187;31;39830;-83
2023/04/11 19:07:22;;;;;;;15.55;9.70;;;;;;;12.02;64.18;99319.41;7847098;31;39621;-83
2023/04/11 19:11:40;;;;;;;15.60;9.07;;;;;;;12.06;63.55;99324.31;7822747;31;38414;-83
2023/04/11 19:15:56;;;;;;;15.80;9.38;;;;;;;12.00;63.51;99318.91;7819503;32;37837;-83
2023/04/11 19:20:14;;;;;;;16.00;9.07;;;;;;;11.93;63.72;99310.22;7832314;31;40303;-82
2023/04/11 19:24:31;;;;;;;18.35;9.82;;;;;;;11.79;63.75;99306.56;7824904;31;40019;-83
2023/04/11 19:28:47;;;;;;;17.67;9.38;;;;;;;11.55;64.31;99303.84;7837284;31;38570;-83
2023/04/11 19:33:03;;;;;;;15.48;8.77;;;;;;;11.41;64.33;99303.72;7818040;32;37173;-82
2023/04/11 19:37:21;;;;;;;15.07;8.60;;;;;;;11.52;63.39;99294.31;7819011;32;39993;-83
2023/04/11 19:41:42;;;;;;;15.35;9.02;;;;;;;11.24;63.36;99306.87;7818663;31;39627;-84
2023/04/11 19:45:58;;;;;;;16.25;9.30;;;;;;;10.98;63.93;99318.03;7819881;31;37912;-81
2023/04/11 19:50:15;;;;;;;13.07;7.95;;;;;;;11.13;63.42;99308.09;7831233;31;37086;-82
2023/04/11 19:54:32;;;;;;;13.62;8.20;;;;;;;11.12;63.08;99309.19;7846725;31;39265;-83
2023/04/11 19:58:50;;;;;;;15.18;8.90;;;;;;;10.83;63.70;99321.69;7843151;31;40149;-83
2023/04/11 20:03:10;;;;;;;15.57;8.48;;;;;;;10.83;63.58;99332.63;7818873;32;37943;-82